sensor_id;sensor_type;location;lat;lon;timestamp;pressure;altitude;pressure_sealevel;temperature;humidity
36748;BME280;22716;51.556;5.080;2023-08-06T00:00:09;99665.47;;;15.62;100.00
36748;BME280;22716;51.556;5.080;2023-08-06T00:02:38;99662.06;;;15.60;100.00
36748;BME280;22716;51.556;5.080;2023-08-06T00:05:08;99665.56;;;15.61;100.00
36748;BME280;22716;51.556;5.080;2023-08-06T00:07:37;99668.09;;;15.62;100.00
36748;BME280;22716;51.556;5.080;2023-08-06T00:10:07;99662.91;;;15.61;100.00
36748;BME280;22716;51.556;5.080;2023-08-06T00:12:36;99668.09;;;15.62;100.00
36748;BME280;22716;51.556;5.080;2023-08-06T00:15:09;99665.56;;;15.61;100.00
36748;BME280;22716;51.556;5.080;2023-08-06T00:17:38;99662.06;;;15.60;100.00
36748;BME280;22716;51.556;5.080;2023-08-06T00:20:08;99663.84;;;15.60;100.00
36748;BME280;22716;51.556;5.080;2023-08-06T00:22:37;99656.78;;;15.60;100.00
36748;BME280;22716;51.556;5.080;2023-08-06T00:25:08;99654.19;;;15.59;100.00
36748;BME280;22716;51.556;5.080;2023-08-06T00:27:37;99657.84;;;15.56;100.00
36748;BME280;22716;51.556;5.080;2023-08-06T00:30:10;99648.13;;;15.57;100.00
36748;BME280;22716;51.556;5.080;2023-08-06T00:32:39;99653.41;;;15.57;100.00
36748;BME280;22716;51.556;5.080;2023-08-06T00:35:09;99657.78;;;15.58;100.00
36748;BME280;22716;51.556;5.080;2023-08-06T00:37:39;99653.41;;;15.57;100.00
36748;BME280;22716;51.556;5.080;2023-08-06T00:40:08;99653.50;;;15.55;100.00
36748;BME280;22716;51.556;5.080;2023-08-06T00:42:37;99653.41;;;15.57;100.00
36748;BME280;22716;51.556;5.080;2023-08-06T00:45:09;99642.84;;;15.57;100.00
36748;BME280;22716;51.556;5.080;2023-08-06T00:47:38;99649.00;;;15.57;100.00
36748;BME280;22716;51.556;5.080;2023-08-06T00:50:08;99648.91;;;15.59;100.00
36748;BME280;22716;51.556;5.080;2023-08-06T00:52:37;99641.09;;;15.57;100.00
36748;BME280;22716;51.556;5.080;2023-08-06T00:55:07;99639.50;;;15.53;100.00
36748;BME280;22716;51.556;5.080;2023-08-06T00:57:36;99643.94;;;15.53;100.00
36748;BME280;22716;51.556;5.080;2023-08-06T01:00:09;99646.75;;;15.50;100.00
36748;BME280;22716;51.556;5.080;2023-08-06T01:02:38;99644.13;;;15.50;100.00
36748;BME280;22716;51.556;5.080;2023-08-06T01:05:08;99639.75;;;15.49;100.00
36748;BME280;22716;51.556;5.080;2023-08-06T01:07:44;99635.41;;;15.48;100.00
36748;BME280;22716;51.556;5.080;2023-08-06T01:10:25;99645.81;;;15.51;100.00
36748;BME280;22716;51.556;5.080;2023-08-06T01:13:06;99639.81;;;15.47;100.00
36748;BME280;22716;51.556;5.080;2023-08-06T01:15:44;99635.34;;;15.49;100.00
36748;BME280;22716;51.556;5.080;2023-08-06T01:18:14;99636.19;;;15.50;100.00
36748;BME280;22716;51.556;5.080;2023-08-06T01:20:46;99643.94;;;15.53;100.00
36748;BME280;22716;51.556;5.080;2023-08-06T01:23:15;99641.38;;;15.51;100.00
36748;BME280;22716;51.556;5.080;2023-08-06T01:25:51;99625.69;;;15.48;100.00
36748;BME280;22716;51.556;5.080;2023-08-06T01:28:29;99634.47;;;15.49;100.00
36748;BME280;22716;51.556;5.080;2023-08-06T01:31:02;99643.31;;;15.48;100.00
36748;BME280;22716;51.556;5.080;2023-08-06T01:33:34;99645.88;;;15.49;100.00
36748;BME280;22716;51.556;5.080;2023-08-06T01:36:10;99640.63;;;15.49;100.00
36748;BME280;22716;51.556;5.080;2023-08-06T01:38:39;99644.88;;;15.52;100.00
36748;BME280;22716;51.556;5.080;2023-08-06T01:41:08;99649.22;;;15.53;100.00
36748;BME280;22716;51.556;5.080;2023-08-06T01:43:37;99650.94;;;15.54;100.00
36748;BME280;22716;51.556;5.080;2023-08-06T01:46:06;99649.22;;;15.53;100.00
36748;BME280;22716;51.556;5.080;2023-08-06T01:48:35;99650.78;;;15.57;100.00
36748;BME280;22716;51.556;5.080;2023-08-06T01:51:04;99653.38;;;15.58;100.00
36748;BME280;22716;51.556;5.080;2023-08-06T01:53:36;99645.44;;;15.58;100.00
36748;BME280;22716;51.556;5.080;2023-08-06T01:56:05;99640.06;;;15.60;100.00
36748;BME280;22716;51.556;5.080;2023-08-06T01:58:34;99637.44;;;15.60;100.00
36748;BME280;22716;51.556;5.080;2023-08-06T02:01:03;99627.78;;;15.59;100.00
36748;BME280;22716;51.556;5.080;2023-08-06T02:03:32;99636.66;;;15.58;100.00
36748;BME280;22716;51.556;5.080;2023-08-06T02:06:01;99633.88;;;15.61;100.00
36748;BME280;22716;51.556;5.080;2023-08-06T02:08:30;99639.06;;;15.62;100.00
36748;BME280;22716;51.556;5.080;2023-08-06T02:11:01;99632.91;;;15.62;100.00
36748;BME280;22716;51.556;5.080;2023-08-06T02:13:30;99641.69;;;15.62;100.00
36748;BME280;22716;51.556;5.080;2023-08-06T02:15:59;99641.78;;;15.61;100.00
36748;BME280;22716;51.556;5.080;2023-08-06T02:18:28;99647.06;;;15.61;100.00
36748;BME280;22716;51.556;5.080;2023-08-06T02:20:58;99646.91;;;15.64;100.00
36748;BME280;22716;51.556;5.080;2023-08-06T02:23:27;99649.63;;;15.62;100.00
36748;BME280;22716;51.556;5.080;2023-08-06T02:25:57;99643.47;;;15.62;100.00
36748;BME280;22716;51.556;5.080;2023-08-06T02:28:31;99648.75;;;15.62;100.00
36748;BME280;22716;51.556;5.080;2023-08-06T02:31:00;99654.84;;;15.64;100.00
36748;BME280;22716;51.556;5.080;2023-08-06T02:33:29;99655.84;;;15.61;100.00
36748;BME280;22716;51.556;5.080;2023-08-06T02:36:02;99657.63;;;15.61;100.00
36748;BME280;22716;51.556;5.080;2023-08-06T02:38:32;99655.00;;;15.61;100.00
36748;BME280;22716;51.556;5.080;2023-08-06T02:41:02;99654.03;;;15.62;100.00
36748;BME280;22716;51.556;5.080;2023-08-06T02:43:34;99646.13;;;15.62;100.00
36748;BME280;22716;51.556;5.080;2023-08-06T02:46:03;99646.22;;;15.60;100.00
36748;BME280;22716;51.556;5.080;2023-08-06T02:48:32;99644.44;;;15.61;100.00
36748;BME280;22716;51.556;5.080;2023-08-06T02:51:01;99650.56;;;15.61;100.00
36748;BME280;22716;51.556;5.080;2023-08-06T02:53:30;99647.06;;;15.61;100.00
36748;BME280;22716;51.556;5.080;2023-08-06T02:56:00;99645.34;;;15.60;100.00
36748;BME280;22716;51.556;5.080;2023-08-06T02:58:28;99639.06;;;15.62;100.00
36748;BME280;22716;51.556;5.080;2023-08-06T03:01:05;99640.78;;;15.63;100.00
36748;BME280;22716;51.556;5.080;2023-08-06T03:03:34;99642.56;;;15.63;100.00
36748;BME280;22716;51.556;5.080;2023-08-06T03:06:03;99647.06;;;15.61;100.00
36748;BME280;22716;51.556;5.080;2023-08-06T03:08:32;99647.94;;;15.61;100.00
36748;BME280;22716;51.556;5.080;2023-08-06T03:11:01;99646.13;;;15.62;100.00
36748;BME280;22716;51.556;5.080;2023-08-06T03:13:30;99648.75;;;15.62;100.00
36748;BME280;22716;51.556;5.080;2023-08-06T03:15:59;99645.19;;;15.63;100.00
36748;BME280;22716;51.556;5.080;2023-08-06T03:18:31;99640.94;;;15.60;100.00
36748;BME280;22716;51.556;5.080;2023-08-06T03:20:59;99646.06;;;15.63;100.00
36748;BME280;22716;51.556;5.080;2023-08-06T03:23:28;99650.47;;;15.63;100.00
36748;BME280;22716;51.556;5.080;2023-08-06T03:26:01;99652.34;;;15.61;100.00
36748;BME280;22716;51.556;5.080;2023-08-06T03:28:30;99648.13;;;15.57;100.00
36748;BME280;22716;51.556;5.080;2023-08-06T03:31:00;99647.22;;;15.58;100.00
36748;BME280;22716;51.556;5.080;2023-08-06T03:33:31;99660.19;;;15.62;100.00
36748;BME280;22716;51.556;5.080;2023-08-06T03:36:00;99656.69;;;15.62;100.00
36748;BME280;22716;51.556;5.080;2023-08-06T03:38:29;99655.69;;;15.64;100.00
36748;BME280;22716;51.556;5.080;2023-08-06T03:40:58;99657.47;;;15.64;100.00
36748;BME280;22716;51.556;5.080;2023-08-06T03:43:27;99653.13;;;15.63;100.00
36748;BME280;22716;51.556;5.080;2023-08-06T03:45:56;99659.41;;;15.60;100.00
36748;BME280;22716;51.556;5.080;2023-08-06T03:48:25;99656.69;;;15.62;100.00
36748;BME280;22716;51.556;5.080;2023-08-06T03:50:57;99658.41;;;15.63;100.00
36748;BME280;22716;51.556;5.080;2023-08-06T03:53:27;99656.63;;;15.63;100.00
36748;BME280;22716;51.556;5.080;2023-08-06T03:55:56;99657.38;;;15.65;100.00
36748;BME280;22716;51.556;5.080;2023-08-06T03:58:27;99660.97;;;15.64;100.00
36748;BME280;22716;51.556;5.080;2023-08-06T04:00:59;99663.44;;;15.67;100.00
36748;BME280;22716;51.556;5.080;2023-08-06T04:03:28;99661.81;;;15.65;100.00
36748;BME280;22716;51.556;5.080;2023-08-06T04:06:01;99663.44;;;15.67;100.00
36748;BME280;22716;51.556;5.080;2023-08-06T04:08:30;99663.44;;;15.67;100.00
36748;BME280;22716;51.556;5.080;2023-08-06T04:10:59;99671.59;;;15.63;100.00
36748;BME280;22716;51.556;5.080;2023-08-06T04:13:29;99668.19;;;15.61;100.00
36748;BME280;22716;51.556;5.080;2023-08-06T04:16:01;99683.22;;;15.59;100.00
36748;BME280;22716;51.556;5.080;2023-08-06T04:18:31;99674.53;;;15.57;100.00
36748;BME280;22716;51.556;5.080;2023-08-06T04:21:02;99678.91;;;15.58;100.00
36748;BME280;22716;51.556;5.080;2023-08-06T04:23:31;99675.47;;;15.56;100.00
36748;BME280;22716;51.556;5.080;2023-08-06T04:26:00;99669.41;;;15.54;100.00
36748;BME280;22716;51.556;5.080;2023-08-06T04:28:30;99668.78;;;15.49;100.00
36748;BME280;22716;51.556;5.080;2023-08-06T04:30:59;99675.78;;;15.50;100.00
36748;BME280;22716;51.556;5.080;2023-08-06T04:33:27;99678.59;;;15.45;100.00
36748;BME280;22716;51.556;5.080;2023-08-06T04:35:56;99682.03;;;15.47;100.00
36748;BME280;22716;51.556;5.080;2023-08-06T04:38:28;99688.31;;;15.45;100.00
36748;BME280;22716;51.556;5.080;2023-08-06T04:40:57;99683.16;;;15.42;100.00
36748;BME280;22716;51.556;5.080;2023-08-06T04:43:26;99691.22;;;15.39;100.00
36748;BME280;22716;51.556;5.080;2023-08-06T04:45:55;99700.25;;;15.35;100.00
36748;BME280;22716;51.556;5.080;2023-08-06T04:48:24;99695.78;;;15.35;100.00
36748;BME280;22716;51.556;5.080;2023-08-06T04:50:53;99697.53;;;15.36;100.00
36748;BME280;22716;51.556;5.080;2023-08-06T04:53:22;99696.66;;;15.36;100.00
36748;BME280;22716;51.556;5.080;2023-08-06T04:55:54;99701.31;;;15.31;100.00
36748;BME280;22716;51.556;5.080;2023-08-06T04:58:23;99708.50;;;15.27;100.00
36748;BME280;22716;51.556;5.080;2023-08-06T05:00:53;99700.81;;;15.23;100.00
36748;BME280;22716;51.556;5.080;2023-08-06T05:03:23;99696.47;;;15.22;100.00
36748;BME280;22716;51.556;5.080;2023-08-06T05:05:53;99692.19;;;15.19;100.00
36748;BME280;22716;51.556;5.080;2023-08-06T05:08:22;99703.47;;;15.23;100.00
36748;BME280;22716;51.556;5.080;2023-08-06T05:10:51;99698.38;;;15.18;100.00
36748;BME280;22716;51.556;5.080;2023-08-06T05:13:22;99711.44;;;15.21;100.00
36748;BME280;22716;51.556;5.080;2023-08-06T05:15:53;99705.16;;;15.24;100.00
36748;BME280;22716;51.556;5.080;2023-08-06T05:18:22;99710.44;;;15.24;100.00
36748;BME280;22716;51.556;5.080;2023-08-06T05:20:51;99717.66;;;15.20;100.00
36748;BME280;22716;51.556;5.080;2023-08-06T05:23:20;99721.31;;;15.18;100.00
36748;BME280;22716;51.556;5.080;2023-08-06T05:25:49;99727.50;;;15.17;100.00
36748;BME280;22716;51.556;5.080;2023-08-06T05:28:18;99723.41;;;15.09;100.00
36748;BME280;22716;51.556;5.080;2023-08-06T05:30:49;99738.09;;;15.15;100.00
36748;BME280;22716;51.556;5.080;2023-08-06T05:33:18;99740.75;;;15.15;100.00
36748;BME280;22716;51.556;5.080;2023-08-06T05:35:49;99756.53;;;15.17;100.00
36748;BME280;22716;51.556;5.080;2023-08-06T05:38:17;99761.78;;;15.17;100.00
36748;BME280;22716;51.556;5.080;2023-08-06T05:40:46;99763.66;;;15.14;100.00
36748;BME280;22716;51.556;5.080;2023-08-06T05:43:15;99769.84;;;15.13;100.00
36748;BME280;22716;51.556;5.080;2023-08-06T05:45:44;99782.31;;;15.10;100.00
36748;BME280;22716;51.556;5.080;2023-08-06T05:48:16;99787.28;;;14.97;100.00
36748;BME280;22716;51.556;5.080;2023-08-06T05:50:45;99807.63;;;14.75;100.00
36748;BME280;22716;51.556;5.080;2023-08-06T05:53:14;99806.69;;;14.56;100.00
36748;BME280;22716;51.556;5.080;2023-08-06T05:55:43;99819.19;;;14.31;100.00
36748;BME280;22716;51.556;5.080;2023-08-06T05:58:12;99816.50;;;14.11;100.00
36748;BME280;22716;51.556;5.080;2023-08-06T06:00:41;99820.88;;;13.90;100.00
36748;BME280;22716;51.556;5.080;2023-08-06T06:03:10;99818.34;;;13.87;100.00
36748;BME280;22716;51.556;5.080;2023-08-06T06:05:41;99823.94;;;13.79;100.00
36748;BME280;22716;51.556;5.080;2023-08-06T06:08:10;99816.19;;;13.75;100.00
36748;BME280;22716;51.556;5.080;2023-08-06T06:10:39;99813.53;;;13.76;100.00
36748;BME280;22716;51.556;5.080;2023-08-06T06:13:08;99825.09;;;13.72;100.00
36748;BME280;22716;51.556;5.080;2023-08-06T06:15:37;99816.41;;;13.70;100.00
36748;BME280;22716;51.556;5.080;2023-08-06T06:18:05;99824.34;;;13.69;100.00
36748;BME280;22716;51.556;5.080;2023-08-06T06:20:35;99833.88;;;13.71;100.00
36748;BME280;22716;51.556;5.080;2023-08-06T06:23:06;99838.25;;;13.72;100.00
36748;BME280;22716;51.556;5.080;2023-08-06T06:25:35;99846.06;;;13.74;100.00
36748;BME280;22716;51.556;5.080;2023-08-06T06:28:04;99842.53;;;13.75;100.00
36748;BME280;22716;51.556;5.080;2023-08-06T06:30:33;99851.97;;;13.80;100.00
36748;BME280;22716;51.556;5.080;2023-08-06T06:33:02;99858.88;;;13.83;100.00
36748;BME280;22716;51.556;5.080;2023-08-06T06:35:31;99852.81;;;13.81;100.00
36748;BME280;22716;51.556;5.080;2023-08-06T06:38:00;99864.03;;;13.86;100.00
36748;BME280;22716;51.556;5.080;2023-08-06T06:40:31;99869.13;;;13.90;100.00
36748;BME280;22716;51.556;5.080;2023-08-06T06:43:01;99871.00;;;13.87;100.00
36748;BME280;22716;51.556;5.080;2023-08-06T06:45:30;99883.88;;;13.94;100.00
36748;BME280;22716;51.556;5.080;2023-08-06T06:47:59;99865.63;;;13.90;100.00
36748;BME280;22716;51.556;5.080;2023-08-06T06:50:28;99892.50;;;13.98;100.00
36748;BME280;22716;51.556;5.080;2023-08-06T06:52:57;99889.94;;;13.96;100.00
36748;BME280;22716;51.556;5.080;2023-08-06T06:55:26;99889.59;;;14.06;100.00
36748;BME280;22716;51.556;5.080;2023-08-06T06:57:57;99891.16;;;14.10;100.00
36748;BME280;22716;51.556;5.080;2023-08-06T07:00:26;99895.44;;;14.12;100.00
36748;BME280;22716;51.556;5.080;2023-08-06T07:02:55;99898.09;;;14.12;100.00
36748;BME280;22716;51.556;5.080;2023-08-06T07:05:24;99904.19;;;14.14;100.00
36748;BME280;22716;51.556;5.080;2023-08-06T07:07:53;99908.47;;;14.17;100.00
36748;BME280;22716;51.556;5.080;2023-08-06T07:10:22;99904.84;;;14.19;100.00
36748;BME280;22716;51.556;5.080;2023-08-06T07:12:51;99905.59;;;14.23;100.00
36748;BME280;22716;51.556;5.080;2023-08-06T07:15:23;99909.09;;;14.23;100.00
36748;BME280;22716;51.556;5.080;2023-08-06T07:17:52;99906.44;;;14.23;100.00
36748;BME280;22716;51.556;5.080;2023-08-06T07:20:21;99913.50;;;14.23;100.00
36748;BME280;22716;51.556;5.080;2023-08-06T07:22:50;99910.13;;;14.19;100.00
36748;BME280;22716;51.556;5.080;2023-08-06T07:25:18;99924.88;;;14.23;100.00
36748;BME280;22716;51.556;5.080;2023-08-06T07:27:47;99931.00;;;14.24;100.00
36748;BME280;22716;51.556;5.080;2023-08-06T07:30:16;99929.28;;;14.23;100.00
36748;BME280;22716;51.556;5.080;2023-08-06T07:32:48;99938.06;;;14.23;100.00
36748;BME280;22716;51.556;5.080;2023-08-06T07:35:17;99934.56;;;14.23;100.00
36748;BME280;22716;51.556;5.080;2023-08-06T07:37:46;99935.47;;;14.22;100.00
36748;BME280;22716;51.556;5.080;2023-08-06T07:40:15;99946.00;;;14.22;100.00
36748;BME280;22716;51.556;5.080;2023-08-06T07:42:44;99950.50;;;14.20;100.00
36748;BME280;22716;51.556;5.080;2023-08-06T07:45:14;99953.13;;;14.20;100.00
36748;BME280;22716;51.556;5.080;2023-08-06T07:47:43;99956.63;;;14.20;100.00
36748;BME280;22716;51.556;5.080;2023-08-06T07:50:14;99957.53;;;14.19;100.00
36748;BME280;22716;51.556;5.080;2023-08-06T07:52:43;99962.88;;;14.18;100.00
36748;BME280;22716;51.556;5.080;2023-08-06T07:55:12;99959.38;;;14.17;100.00
36748;BME280;22716;51.556;5.080;2023-08-06T07:57:41;99966.41;;;14.17;100.00
36748;BME280;22716;51.556;5.080;2023-08-06T08:00:11;99957.78;;;14.13;100.00
36748;BME280;22716;51.556;5.080;2023-08-06T08:02:40;99968.25;;;14.15;100.00
36748;BME280;22716;51.556;5.080;2023-08-06T08:05:09;99974.31;;;14.17;100.00
36748;BME280;22716;51.556;5.080;2023-08-06T08:07:40;99971.69;;;14.17;100.00
36748;BME280;22716;51.556;5.080;2023-08-06T08:10:10;99972.53;;;14.17;100.00
36748;BME280;22716;51.556;5.080;2023-08-06T08:12:38;99973.41;;;14.18;100.00
36748;BME280;22716;51.556;5.080;2023-08-06T08:15:09;99974.25;;;14.18;100.00
36748;BME280;22716;51.556;5.080;2023-08-06T08:17:38;99980.38;;;14.19;100.00
36748;BME280;22716;51.556;5.080;2023-08-06T08:20:08;99968.94;;;14.20;100.00
36748;BME280;22716;51.556;5.080;2023-08-06T08:22:39;99975.84;;;14.22;100.00
36748;BME280;22716;51.556;5.080;2023-08-06T08:25:08;99974.88;;;14.25;100.00
36748;BME280;22716;51.556;5.080;2023-08-06T08:27:37;99989.78;;;14.26;100.00
36748;BME280;22716;51.556;5.080;2023-08-06T08:30:07;99983.56;;;14.27;100.00
36748;BME280;22716;51.556;5.080;2023-08-06T08:32:36;99989.53;;;14.32;100.00
36748;BME280;22716;51.556;5.080;2023-08-06T08:35:05;99992.22;;;14.30;100.00
36748;BME280;22716;51.556;5.080;2023-08-06T08:37:33;99995.59;;;14.35;100.00
36748;BME280;22716;51.556;5.080;2023-08-06T08:40:07;99991.88;;;14.39;100.00
36748;BME280;22716;51.556;5.080;2023-08-06T08:42:36;99996.28;;;14.39;100.00
36748;BME280;22716;51.556;5.080;2023-08-06T08:45:11;99994.41;;;14.42;100.00
36748;BME280;22716;51.556;5.080;2023-08-06T08:47:41;99998.81;;;14.42;100.00
36748;BME280;22716;51.556;5.080;2023-08-06T08:50:10;100003.06;;;14.46;100.00
36748;BME280;22716;51.556;5.080;2023-08-06T08:52:40;100011.63;;;14.51;100.00
36748;BME280;22716;51.556;5.080;2023-08-06T08:55:15;100011.47;;;14.55;100.00
36748;BME280;22716;51.556;5.080;2023-08-06T08:57:47;100006.91;;;14.59;100.00
36748;BME280;22716;51.556;5.080;2023-08-06T09:00:16;100006.97;;;14.57;100.00
36748;BME280;22716;51.556;5.080;2023-08-06T09:02:45;100012.94;;;14.63;100.00
36748;BME280;22716;51.556;5.080;2023-08-06T09:05:15;100016.38;;;14.65;100.00
36748;BME280;22716;51.556;5.080;2023-08-06T09:07:49;100020.53;;;14.70;100.00
36748;BME280;22716;51.556;5.080;2023-08-06T09:10:23;100020.53;;;14.70;100.00
36748;BME280;22716;51.556;5.080;2023-08-06T09:12:52;100020.47;;;14.72;100.00
36748;BME280;22716;51.556;5.080;2023-08-06T09:15:24;100019.34;;;14.77;100.00
36748;BME280;22716;51.556;5.080;2023-08-06T09:17:53;100025.44;;;14.79;100.00
36748;BME280;22716;51.556;5.080;2023-08-06T09:20:23;100032.19;;;14.86;100.00
36748;BME280;22716;51.556;5.080;2023-08-06T09:22:52;100035.56;;;14.90;100.00
36748;BME280;22716;51.556;5.080;2023-08-06T09:25:25;100039.84;;;14.92;100.00
36748;BME280;22716;51.556;5.080;2023-08-06T09:27:54;100045.91;;;14.94;100.00
36748;BME280;22716;51.556;5.080;2023-08-06T09:30:30;100038.00;;;14.94;100.00
36748;BME280;22716;51.556;5.080;2023-08-06T09:32:59;100047.63;;;14.95;100.00
36748;BME280;22716;51.556;5.080;2023-08-06T09:35:29;100049.28;;;14.98;100.00
36748;BME280;22716;51.556;5.080;2023-08-06T09:38:06;100047.59;;;14.97;100.00
36748;BME280;22716;51.556;5.080;2023-08-06T09:40:40;100053.56;;;15.00;100.00
36748;BME280;22716;51.556;5.080;2023-08-06T09:43:12;100050.69;;;15.06;100.00
36748;BME280;22716;51.556;5.080;2023-08-06T09:45:41;100055.78;;;15.11;100.00
36748;BME280;22716;51.556;5.080;2023-08-06T09:48:10;100060.00;;;15.15;100.00
36748;BME280;22716;51.556;5.080;2023-08-06T09:50:39;100061.59;;;15.19;100.00
36748;BME280;22716;51.556;5.080;2023-08-06T09:53:09;100064.16;;;15.21;100.00
36748;BME280;22716;51.556;5.080;2023-08-06T09:55:40;100066.66;;;15.24;100.00
36748;BME280;22716;51.556;5.080;2023-08-06T09:58:10;100070.91;;;15.28;100.00
36748;BME280;22716;51.556;5.080;2023-08-06T10:00:40;100069.78;;;15.33;100.00
36748;BME280;22716;51.556;5.080;2023-08-06T10:03:09;100074.03;;;15.37;100.00
36748;BME280;22716;51.556;5.080;2023-08-06T10:05:40;100074.81;;;15.39;100.00
36748;BME280;22716;51.556;5.080;2023-08-06T10:08:10;100077.28;;;15.44;100.00
36748;BME280;22716;51.556;5.080;2023-08-06T10:10:42;100074.69;;;15.42;100.00
36748;BME280;22716;51.556;5.080;2023-08-06T10:13:12;100065.03;;;15.41;100.00
36748;BME280;22716;51.556;5.080;2023-08-06T10:15:42;100082.25;;;15.51;100.00
36748;BME280;22716;51.556;5.080;2023-08-06T10:18:11;100081.25;;;15.54;100.00
36748;BME280;22716;51.556;5.080;2023-08-06T10:20:47;100084.56;;;15.59;100.00
36748;BME280;22716;51.556;5.080;2023-08-06T10:23:15;100094.19;;;15.60;100.00
36748;BME280;22716;51.556;5.080;2023-08-06T10:25:54;100089.69;;;15.62;100.00
36748;BME280;22716;51.556;5.080;2023-08-06T10:28:34;100098.63;;;15.59;100.00
36748;BME280;22716;51.556;5.080;2023-08-06T10:31:04;100089.91;;;15.57;100.00
36748;BME280;22716;51.556;5.080;2023-08-06T10:33:41;100094.31;;;15.57;100.00
36748;BME280;22716;51.556;5.080;2023-08-06T10:36:12;100094.31;;;15.57;100.00
36748;BME280;22716;51.556;5.080;2023-08-06T10:38:45;100114.16;;;15.67;100.00
36748;BME280;22716;51.556;5.080;2023-08-06T10:41:22;100101.53;;;15.74;100.00
36748;BME280;22716;51.556;5.080;2023-08-06T10:44:05;100107.41;;;15.80;100.00
36748;BME280;22716;51.556;5.080;2023-08-06T10:46:35;100103.63;;;15.86;100.00
36748;BME280;22716;51.556;5.080;2023-08-06T10:49:05;100103.44;;;15.90;100.00
36748;BME280;22716;51.556;5.080;2023-08-06T10:51:34;100110.38;;;15.93;100.00
36748;BME280;22716;51.556;5.080;2023-08-06T10:54:04;100106.59;;;15.98;100.00
36748;BME280;22716;51.556;5.080;2023-08-06T10:56:40;100116.00;;;16.05;100.00
36748;BME280;22716;51.556;5.080;2023-08-06T10:59:10;100120.16;;;16.11;100.00
36748;BME280;22716;51.556;5.080;2023-08-06T11:01:39;100112.94;;;16.14;100.00
36748;BME280;22716;51.556;5.080;2023-08-06T11:04:08;100123.34;;;16.17;100.00
36748;BME280;22716;51.556;5.080;2023-08-06T11:06:42;100127.59;;;16.21;100.00
36748;BME280;22716;51.556;5.080;2023-08-06T11:09:11;100128.31;;;16.25;100.00
36748;BME280;22716;51.556;5.080;2023-08-06T11:11:43;100116.59;;;16.31;100.00
36748;BME280;22716;51.556;5.080;2023-08-06T11:14:15;100131.41;;;16.35;100.00
36748;BME280;22716;51.556;5.080;2023-08-06T11:16:44;100126.69;;;16.41;100.00
36748;BME280;22716;51.556;5.080;2023-08-06T11:19:13;100119.56;;;16.43;100.00
36748;BME280;22716;51.556;5.080;2023-08-06T11:21:43;100132.34;;;16.52;100.00
36748;BME280;22716;51.556;5.080;2023-08-06T11:24:13;100131.38;;;16.55;100.00
36748;BME280;22716;51.556;5.080;2023-08-06T11:26:45;100124.88;;;16.62;100.00
36748;BME280;22716;51.556;5.080;2023-08-06T11:29:15;100117.59;;;16.67;100.00
36748;BME280;22716;51.556;5.080;2023-08-06T11:31:44;100125.16;;;16.74;100.00
36748;BME280;22716;51.556;5.080;2023-08-06T11:34:13;100120.50;;;16.79;100.00
36748;BME280;22716;51.556;5.080;2023-08-06T11:36:43;100124.25;;;16.75;100.00
36748;BME280;22716;51.556;5.080;2023-08-06T11:39:13;100132.47;;;16.69;100.00
36748;BME280;22716;51.556;5.080;2023-08-06T11:41:44;100124.03;;;16.61;100.00
36748;BME280;22716;51.556;5.080;2023-08-06T11:44:14;100132.41;;;16.51;100.00
36748;BME280;22716;51.556;5.080;2023-08-06T11:46:50;100137.97;;;16.45;100.00
36748;BME280;22716;51.556;5.080;2023-08-06T11:49:39;100139.97;;;16.40;100.00
36748;BME280;22716;51.556;5.080;2023-08-06T11:52:13;100135.69;;;16.37;100.00
36748;BME280;22716;51.556;5.080;2023-08-06T11:54:44;100133.09;;;16.36;100.00
36748;BME280;22716;51.556;5.080;2023-08-06T11:57:16;100145.13;;;16.43;100.00
36748;BME280;22716;51.556;5.080;2023-08-06T11:59:45;100134.28;;;16.49;100.00
36748;BME280;22716;51.556;5.080;2023-08-06T12:02:14;100136.97;;;16.47;100.00
36748;BME280;22716;51.556;5.080;2023-08-06T12:05:04;100137.31;;;16.60;100.00
36748;BME280;22716;51.556;5.080;2023-08-06T12:07:37;100143.97;;;16.68;100.00
36748;BME280;22716;51.556;5.080;2023-08-06T12:10:06;100140.44;;;16.68;100.00
36748;BME280;22716;51.556;5.080;2023-08-06T12:12:38;100146.28;;;16.76;100.00
36748;BME280;22716;51.556;5.080;2023-08-06T12:15:09;100143.13;;;16.87;100.00
36748;BME280;22716;51.556;5.080;2023-08-06T12:17:38;100154.47;;;16.89;100.00
36748;BME280;22716;51.556;5.080;2023-08-06T12:20:09;100148.03;;;16.94;100.00
36748;BME280;22716;51.556;5.080;2023-08-06T12:22:39;100151.06;;;17.05;100.00
36748;BME280;22716;51.556;5.080;2023-08-06T12:25:10;100150.75;;;17.11;100.00
36748;BME280;22716;51.556;5.080;2023-08-06T12:27:43;100149.75;;;17.14;100.00
36748;BME280;22716;51.556;5.080;2023-08-06T12:30:12;100153.03;;;17.19;100.00
36748;BME280;22716;51.556;5.080;2023-08-06T12:32:41;100150.22;;;17.22;100.00
36748;BME280;22716;51.556;5.080;2023-08-06T12:35:11;100157.53;;;17.17;100.00
36748;BME280;22716;51.556;5.080;2023-08-06T12:37:40;100162.75;;;17.18;100.00
36748;BME280;22716;51.556;5.080;2023-08-06T12:40:10;100153.88;;;17.19;100.00
36748;BME280;22716;51.556;5.080;2023-08-06T12:42:44;100164.09;;;17.27;100.00
36748;BME280;22716;51.556;5.080;2023-08-06T12:45:14;100170.00;;;17.32;100.00
36748;BME280;22716;51.556;5.080;2023-08-06T12:47:47;100167.44;;;17.30;100.00
36748;BME280;22716;51.556;5.080;2023-08-06T12:50:16;100171.97;;;17.28;100.00
36748;BME280;22716;51.556;5.080;2023-08-06T12:52:45;100176.03;;;17.35;100.00
36748;BME280;22716;51.556;5.080;2023-08-06T12:55:14;100178.47;;;17.40;100.00
36748;BME280;22716;51.556;5.080;2023-08-06T12:57:49;100177.31;;;17.46;100.00
36748;BME280;22716;51.556;5.080;2023-08-06T13:00:18;100184.00;;;17.53;100.00
36748;BME280;22716;51.556;5.080;2023-08-06T13:02:47;100185.59;;;17.57;100.00